sensor_id;sensor_type;location;lat;lon;timestamp;P1;durP1;ratioP1;P2;durP2;ratioP2
74849;SDS011;63397;47.480;19.238;2023-06-10T00:00:03;11.70;;;5.35;;
74849;SDS011;63397;47.480;19.238;2023-06-10T00:03:13;11.20;;;5.60;;
74849;SDS011;63397;47.480;19.238;2023-06-10T00:06:16;11.40;;;5.53;;
74849;SDS011;63397;47.480;19.238;2023-06-10T00:09:19;11.32;;;5.43;;
74849;SDS011;63397;47.480;19.238;2023-06-10T00:12:23;11.48;;;5.50;;
74849;SDS011;63397;47.480;19.238;2023-06-10T00:15:25;11.13;;;5.70;;
74849;SDS011;63397;47.480;19.238;2023-06-10T00:18:27;11.80;;;5.80;;
74849;SDS011;63397;47.480;19.238;2023-06-10T00:21:34;12.00;;;5.85;;
74849;SDS011;63397;47.480;19.238;2023-06-10T00:24:42;10.55;;;4.78;;
74849;SDS011;63397;47.480;19.238;2023-06-10T00:27:44;13.13;;;5.30;;
74849;SDS011;63397;47.480;19.238;2023-06-10T00:30:47;12.50;;;5.95;;
74849;SDS011;63397;47.480;19.238;2023-06-10T00:33:49;11.93;;;5.20;;
74849;SDS011;63397;47.480;19.238;2023-06-10T00:36:51;11.43;;;5.68;;
74849;SDS011;63397;47.480;19.238;2023-06-10T00:39:53;12.00;;;5.32;;
74849;SDS011;63397;47.480;19.238;2023-06-10T00:42:56;11.77;;;5.63;;
74849;SDS011;63397;47.480;19.238;2023-06-10T00:45:58;11.93;;;5.93;;
74849;SDS011;63397;47.480;19.238;2023-06-10T00:49:01;11.57;;;5.67;;
74849;SDS011;63397;47.480;19.238;2023-06-10T00:52:04;11.02;;;5.25;;
74849;SDS011;63397;47.480;19.238;2023-06-10T00:55:08;11.73;;;5.38;;
74849;SDS011;63397;47.480;19.238;2023-06-10T00:58:10;23.70;;;5.55;;
74849;SDS011;63397;47.480;19.238;2023-06-10T01:01:13;11.30;;;5.53;;
74849;SDS011;63397;47.480;19.238;2023-06-10T01:04:15;10.00;;;4.70;;
74849;SDS011;63397;47.480;19.238;2023-06-10T01:07:25;11.13;;;5.38;;
74849;SDS011;63397;47.480;19.238;2023-06-10T01:10:32;11.82;;;5.05;;
74849;SDS011;63397;47.480;19.238;2023-06-10T01:13:35;10.65;;;5.00;;
74849;SDS011;63397;47.480;19.238;2023-06-10T01:16:38;19.77;;;5.07;;
74849;SDS011;63397;47.480;19.238;2023-06-10T01:19:44;11.60;;;4.97;;
74849;SDS011;63397;47.480;19.238;2023-06-10T01:22:47;13.68;;;5.93;;
74849;SDS011;63397;47.480;19.238;2023-06-10T01:26:02;12.88;;;5.80;;
74849;SDS011;63397;47.480;19.238;2023-06-10T01:29:10;11.13;;;5.07;;
74849;SDS011;63397;47.480;19.238;2023-06-10T01:35:17;16.60;;;5.97;;
74849;SDS011;63397;47.480;19.238;2023-06-10T01:38:19;13.30;;;6.00;;
74849;SDS011;63397;47.480;19.238;2023-06-10T01:41:22;11.48;;;5.57;;
74849;SDS011;63397;47.480;19.238;2023-06-10T01:44:25;11.82;;;5.40;;
74849;SDS011;63397;47.480;19.238;2023-06-10T01:47:27;16.60;;;6.80;;
74849;SDS011;63397;47.480;19.238;2023-06-10T01:50:30;13.57;;;6.03;;
74849;SDS011;63397;47.480;19.238;2023-06-10T01:53:32;17.17;;;6.05;;
74849;SDS011;63397;47.480;19.238;2023-06-10T01:56:34;14.18;;;5.97;;
74849;SDS011;63397;47.480;19.238;2023-06-10T01:59:37;14.88;;;5.80;;
74849;SDS011;63397;47.480;19.238;2023-06-10T02:02:40;11.48;;;5.05;;
74849;SDS011;63397;47.480;19.238;2023-06-10T02:05:42;14.33;;;5.43;;
74849;SDS011;63397;47.480;19.238;2023-06-10T02:08:45;15.23;;;5.57;;
74849;SDS011;63397;47.480;19.238;2023-06-10T02:11:47;10.63;;;4.88;;
74849;SDS011;63397;47.480;19.238;2023-06-10T02:14:49;12.95;;;5.65;;
74849;SDS011;63397;47.480;19.238;2023-06-10T02:17:52;12.90;;;5.60;;
74849;SDS011;63397;47.480;19.238;2023-06-10T02:20:55;14.87;;;4.93;;
74849;SDS011;63397;47.480;19.238;2023-06-10T02:23:57;13.43;;;5.80;;
74849;SDS011;63397;47.480;19.238;2023-06-10T02:26:59;14.05;;;5.97;;
74849;SDS011;63397;47.480;19.238;2023-06-10T02:30:02;13.85;;;5.90;;
74849;SDS011;63397;47.480;19.238;2023-06-10T02:33:08;16.92;;;6.20;;
74849;SDS011;63397;47.480;19.238;2023-06-10T02:36:14;41.03;;;6.13;;
74849;SDS011;63397;47.480;19.238;2023-06-10T02:39:18;12.82;;;5.80;;
74849;SDS011;63397;47.480;19.238;2023-06-10T02:42:20;13.13;;;6.00;;
74849;SDS011;63397;47.480;19.238;2023-06-10T02:45:24;14.35;;;6.47;;
74849;SDS011;63397;47.480;19.238;2023-06-10T02:48:28;16.30;;;6.95;;
74849;SDS011;63397;47.480;19.238;2023-06-10T02:51:31;14.93;;;6.37;;
74849;SDS011;63397;47.480;19.238;2023-06-10T02:54:36;18.77;;;7.25;;
74849;SDS011;63397;47.480;19.238;2023-06-10T02:57:42;16.90;;;7.28;;
74849;SDS011;63397;47.480;19.238;2023-06-10T03:00:44;18.27;;;7.07;;
74849;SDS011;63397;47.480;19.238;2023-06-10T03:03:48;17.58;;;7.28;;
74849;SDS011;63397;47.480;19.238;2023-06-10T03:06:53;17.07;;;7.03;;
74849;SDS011;63397;47.480;19.238;2023-06-10T03:10:07;15.80;;;6.80;;
74849;SDS011;63397;47.480;19.238;2023-06-10T03:13:12;15.95;;;6.97;;
74849;SDS011;63397;47.480;19.238;2023-06-10T03:16:16;16.13;;;7.40;;
74849;SDS011;63397;47.480;19.238;2023-06-10T03:19:18;17.17;;;7.55;;
74849;SDS011;63397;47.480;19.238;2023-06-10T03:22:25;13.43;;;6.70;;
74849;SDS011;63397;47.480;19.238;2023-06-10T03:25:35;13.27;;;6.80;;
74849;SDS011;63397;47.480;19.238;2023-06-10T03:28:38;12.68;;;6.50;;
74849;SDS011;63397;47.480;19.238;2023-06-10T03:31:40;13.60;;;6.43;;
74849;SDS011;63397;47.480;19.238;2023-06-10T03:34:43;14.88;;;6.88;;
74849;SDS011;63397;47.480;19.238;2023-06-10T03:37:47;14.43;;;6.57;;
74849;SDS011;63397;47.480;19.238;2023-06-10T03:40:50;14.25;;;6.55;;
74849;SDS011;63397;47.480;19.238;2023-06-10T03:43:52;15.05;;;6.60;;
74849;SDS011;63397;47.480;19.238;2023-06-10T03:46:55;14.27;;;6.75;;
74849;SDS011;63397;47.480;19.238;2023-06-10T03:49:59;15.40;;;6.15;;
74849;SDS011;63397;47.480;19.238;2023-06-10T03:53:01;12.43;;;6.37;;
74849;SDS011;63397;47.480;19.238;2023-06-10T03:56:05;15.27;;;6.88;;
74849;SDS011;63397;47.480;19.238;2023-06-10T03:59:07;11.85;;;6.28;;
74849;SDS011;63397;47.480;19.238;2023-06-10T04:02:10;15.38;;;7.53;;
74849;SDS011;63397;47.480;19.238;2023-06-10T04:05:13;16.33;;;6.97;;
74849;SDS011;63397;47.480;19.238;2023-06-10T04:08:16;13.03;;;6.10;;
74849;SDS011;63397;47.480;19.238;2023-06-10T04:11:19;12.52;;;6.38;;
74849;SDS011;63397;47.480;19.238;2023-06-10T04:14:21;11.80;;;6.05;;
74849;SDS011;63397;47.480;19.238;2023-06-10T04:17:24;12.18;;;5.78;;
74849;SDS011;63397;47.480;19.238;2023-06-10T04:20:27;15.48;;;6.53;;
74849;SDS011;63397;47.480;19.238;2023-06-10T04:23:29;10.63;;;6.10;;
74849;SDS011;63397;47.480;19.238;2023-06-10T04:26:32;12.65;;;6.03;;
74849;SDS011;63397;47.480;19.238;2023-06-10T04:29:35;15.65;;;6.57;;
74849;SDS011;63397;47.480;19.238;2023-06-10T04:32:38;12.68;;;5.82;;
74849;SDS011;63397;47.480;19.238;2023-06-10T04:35:44;13.07;;;6.53;;
74849;SDS011;63397;47.480;19.238;2023-06-10T04:38:50;12.47;;;6.17;;
74849;SDS011;63397;47.480;19.238;2023-06-10T04:41:54;12.60;;;6.35;;
74849;SDS011;63397;47.480;19.238;2023-06-10T04:44:57;12.77;;;6.95;;
74849;SDS011;63397;47.480;19.238;2023-06-10T04:48:00;12.65;;;6.18;;
74849;SDS011;63397;47.480;19.238;2023-06-10T04:51:02;12.15;;;6.65;;
74849;SDS011;63397;47.480;19.238;2023-06-10T04:54:04;12.03;;;6.37;;
74849;SDS011;63397;47.480;19.238;2023-06-10T04:57:07;12.07;;;5.75;;
74849;SDS011;63397;47.480;19.238;2023-06-10T05:00:10;12.75;;;6.30;;
74849;SDS011;63397;47.480;19.238;2023-06-10T05:03:12;12.65;;;6.57;;
74849;SDS011;63397;47.480;19.238;2023-06-10T05:06:14;13.13;;;7.00;;
74849;SDS011;63397;47.480;19.238;2023-06-10T05:09:17;12.30;;;5.60;;
74849;SDS011;63397;47.480;19.238;2023-06-10T05:12:19;11.63;;;6.38;;
74849;SDS011;63397;47.480;19.238;2023-06-10T05:15:21;13.07;;;5.35;;
74849;SDS011;63397;47.480;19.238;2023-06-10T05:18:24;12.15;;;6.20;;
74849;SDS011;63397;47.480;19.238;2023-06-10T05:21:26;10.95;;;5.55;;
74849;SDS011;63397;47.480;19.238;2023-06-10T05:24:28;10.97;;;5.97;;
74849;SDS011;63397;47.480;19.238;2023-06-10T05:27:31;11.38;;;5.57;;
74849;SDS011;63397;47.480;19.238;2023-06-10T05:30:33;9.90;;;5.78;;
74849;SDS011;63397;47.480;19.238;2023-06-10T05:33:35;10.65;;;5.38;;
74849;SDS011;63397;47.480;19.238;2023-06-10T05:36:38;9.77;;;5.60;;
74849;SDS011;63397;47.480;19.238;2023-06-10T05:39:40;11.23;;;5.20;;
74849;SDS011;63397;47.480;19.238;2023-06-10T05:42:42;8.50;;;4.82;;
74849;SDS011;63397;47.480;19.238;2023-06-10T05:45:45;9.70;;;4.72;;
74849;SDS011;63397;47.480;19.238;2023-06-10T05:48:47;8.82;;;4.68;;
74849;SDS011;63397;47.480;19.238;2023-06-10T05:51:49;8.55;;;4.70;;
74849;SDS011;63397;47.480;19.238;2023-06-10T05:54:52;9.13;;;4.67;;
74849;SDS011;63397;47.480;19.238;2023-06-10T05:58:00;8.90;;;4.68;;
74849;SDS011;63397;47.480;19.238;2023-06-10T06:01:03;10.13;;;5.53;;
74849;SDS011;63397;47.480;19.238;2023-06-10T06:04:05;9.43;;;4.88;;
74849;SDS011;63397;47.480;19.238;2023-06-10T06:07:07;9.35;;;4.70;;
74849;SDS011;63397;47.480;19.238;2023-06-10T06:10:09;8.33;;;4.50;;
74849;SDS011;63397;47.480;19.238;2023-06-10T06:13:12;8.00;;;4.85;;
74849;SDS011;63397;47.480;19.238;2023-06-10T06:16:14;8.73;;;5.03;;
74849;SDS011;63397;47.480;19.238;2023-06-10T06:19:17;8.68;;;4.95;;
74849;SDS011;63397;47.480;19.238;2023-06-10T06:22:19;8.05;;;4.97;;
74849;SDS011;63397;47.480;19.238;2023-06-10T06:25:24;8.43;;;4.93;;
74849;SDS011;63397;47.480;19.238;2023-06-10T06:28:26;10.43;;;5.80;;
74849;SDS011;63397;47.480;19.238;2023-06-10T06:31:31;11.98;;;7.00;;
74849;SDS011;63397;47.480;19.238;2023-06-10T06:34:34;13.30;;;6.90;;
74849;SDS011;63397;47.480;19.238;2023-06-10T06:37:37;13.85;;;7.22;;
74849;SDS011;63397;47.480;19.238;2023-06-10T06:40:52;13.80;;;8.03;;
74849;SDS011;63397;47.480;19.238;2023-06-10T06:43:54;13.70;;;7.63;;
74849;SDS011;63397;47.480;19.238;2023-06-10T06:47:05;16.23;;;7.90;;
74849;SDS011;63397;47.480;19.238;2023-06-10T06:50:07;16.88;;;8.50;;
74849;SDS011;63397;47.480;19.238;2023-06-10T06:53:10;14.13;;;7.57;;
74849;SDS011;63397;47.480;19.238;2023-06-10T06:56:12;15.97;;;8.57;;
74849;SDS011;63397;47.480;19.238;2023-06-10T06:59:14;14.35;;;7.43;;
74849;SDS011;63397;47.480;19.238;2023-06-10T07:02:18;14.68;;;7.97;;
74849;SDS011;63397;47.480;19.238;2023-06-10T07:05:21;14.80;;;8.25;;
74849;SDS011;63397;47.480;19.238;2023-06-10T07:08:23;19.20;;;9.18;;
74849;SDS011;63397;47.480;19.238;2023-06-10T07:11:25;16.60;;;8.47;;
74849;SDS011;63397;47.480;19.238;2023-06-10T07:14:29;18.73;;;9.23;;
74849;SDS011;63397;47.480;19.238;2023-06-10T07:17:31;18.83;;;8.65;;
74849;SDS011;63397;47.480;19.238;2023-06-10T07:20:33;16.75;;;8.65;;
74849;SDS011;63397;47.480;19.238;2023-06-10T07:23:36;17.38;;;8.63;;
74849;SDS011;63397;47.480;19.238;2023-06-10T07:26:38;13.87;;;7.23;;
74849;SDS011;63397;47.480;19.238;2023-06-10T07:29:40;14.40;;;7.82;;
74849;SDS011;63397;47.480;19.238;2023-06-10T07:32:43;13.52;;;7.25;;
74849;SDS011;63397;47.480;19.238;2023-06-10T07:35:46;12.90;;;7.38;;
74849;SDS011;63397;47.480;19.238;2023-06-10T07:38:49;13.63;;;7.47;;
74849;SDS011;63397;47.480;19.238;2023-06-10T07:41:51;13.07;;;8.00;;
74849;SDS011;63397;47.480;19.238;2023-06-10T07:44:56;13.35;;;7.50;;
74849;SDS011;63397;47.480;19.238;2023-06-10T07:47:58;15.25;;;8.10;;
74849;SDS011;63397;47.480;19.238;2023-06-10T07:51:00;12.57;;;7.32;;
74849;SDS011;63397;47.480;19.238;2023-06-10T07:54:03;14.25;;;7.60;;
74849;SDS011;63397;47.480;19.238;2023-06-10T07:57:05;14.13;;;7.93;;
74849;SDS011;63397;47.480;19.238;2023-06-10T08:00:09;14.50;;;8.73;;
74849;SDS011;63397;47.480;19.238;2023-06-10T08:03:14;16.13;;;7.75;;
74849;SDS011;63397;47.480;19.238;2023-06-10T08:06:16;16.95;;;8.90;;
74849;SDS011;63397;47.480;19.238;2023-06-10T08:09:21;16.00;;;8.77;;
74849;SDS011;63397;47.480;19.238;2023-06-10T08:12:25;15.43;;;8.80;;
74849;SDS011;63397;47.480;19.238;2023-06-10T08:15:27;15.32;;;9.18;;
74849;SDS011;63397;47.480;19.238;2023-06-10T08:18:29;15.07;;;8.73;;
74849;SDS011;63397;47.480;19.238;2023-06-10T08:21:32;14.98;;;8.57;;
74849;SDS011;63397;47.480;19.238;2023-06-10T08:24:35;12.93;;;7.97;;
74849;SDS011;63397;47.480;19.238;2023-06-10T08:27:37;13.63;;;8.43;;
74849;SDS011;63397;47.480;19.238;2023-06-10T08:30:40;15.60;;;9.20;;
74849;SDS011;63397;47.480;19.238;2023-06-10T08:33:42;15.77;;;8.20;;
74849;SDS011;63397;47.480;19.238;2023-06-10T08:36:45;13.77;;;8.05;;
74849;SDS011;63397;47.480;19.238;2023-06-10T08:39:47;14.57;;;7.93;;
74849;SDS011;63397;47.480;19.238;2023-06-10T08:42:54;13.90;;;8.07;;
74849;SDS011;63397;47.480;19.238;2023-06-10T08:46:01;14.63;;;8.15;;
74849;SDS011;63397;47.480;19.238;2023-06-10T08:49:05;14.15;;;8.98;;
74849;SDS011;63397;47.480;19.238;2023-06-10T08:52:09;17.15;;;9.82;;
74849;SDS011;63397;47.480;19.238;2023-06-10T08:58:34;22.70;;;11.10;;
74849;SDS011;63397;47.480;19.238;2023-06-10T09:01:43;23.02;;;11.90;;
74849;SDS011;63397;47.480;19.238;2023-06-10T09:04:46;24.55;;;12.32;;
74849;SDS011;63397;47.480;19.238;2023-06-10T09:07:50;25.55;;;12.82;;
74849;SDS011;63397;47.480;19.238;2023-06-10T09:10:53;21.50;;;12.50;;
74849;SDS011;63397;47.480;19.238;2023-06-10T09:13:55;19.37;;;11.13;;
74849;SDS011;63397;47.480;19.238;2023-06-10T09:16:58;20.83;;;11.77;;
74849;SDS011;63397;47.480;19.238;2023-06-10T09:20:00;18.30;;;11.43;;
74849;SDS011;63397;47.480;19.238;2023-06-10T09:23:06;18.33;;;11.23;;
74849;SDS011;63397;47.480;19.238;2023-06-10T09:26:09;18.77;;;12.52;;
74849;SDS011;63397;47.480;19.238;2023-06-10T09:29:12;16.60;;;11.20;;
74849;SDS011;63397;47.480;19.238;2023-06-10T09:32:14;16.98;;;10.95;;
74849;SDS011;63397;47.480;19.238;2023-06-10T09:35:19;17.88;;;12.38;;
74849;SDS011;63397;47.480;19.238;2023-06-10T09:38:22;17.40;;;11.93;;
74849;SDS011;63397;47.480;19.238;2023-06-10T09:41:34;13.85;;;9.82;;
74849;SDS011;63397;47.480;19.238;2023-06-10T09:44:37;15.47;;;9.33;;
74849;SDS011;63397;47.480;19.238;2023-06-10T09:47:40;12.52;;;9.25;;
74849;SDS011;63397;47.480;19.238;2023-06-10T09:50:43;12.57;;;9.65;;
74849;SDS011;63397;47.480;19.238;2023-06-10T09:53:52;12.52;;;8.00;;
74849;SDS011;63397;47.480;19.238;2023-06-10T09:56:55;10.82;;;6.90;;
74849;SDS011;63397;47.480;19.238;2023-06-10T09:59:59;9.97;;;6.63;;
74849;SDS011;63397;47.480;19.238;2023-06-10T10:03:01;8.38;;;5.60;;
74849;SDS011;63397;47.480;19.238;2023-06-10T10:06:03;7.65;;;5.20;;
74849;SDS011;63397;47.480;19.238;2023-06-10T10:09:06;8.20;;;5.00;;
74849;SDS011;63397;47.480;19.238;2023-06-10T10:12:09;7.97;;;4.93;;
74849;SDS011;63397;47.480;19.238;2023-06-10T10:15:12;6.87;;;4.70;;
74849;SDS011;63397;47.480;19.238;2023-06-10T10:18:14;7.00;;;4.50;;
74849;SDS011;63397;47.480;19.238;2023-06-10T10:21:21;7.03;;;4.75;;
74849;SDS011;63397;47.480;19.238;2023-06-10T10:24:26;8.85;;;6.63;;
74849;SDS011;63397;47.480;19.238;2023-06-10T10:27:34;10.85;;;7.47;;
74849;SDS011;63397;47.480;19.238;2023-06-10T10:30:49;11.77;;;8.20;;
74849;SDS011;63397;47.480;19.238;2023-06-10T10:36:53;12.77;;;9.13;;
74849;SDS011;63397;47.480;19.238;2023-06-10T10:39:56;13.93;;;9.77;;
74849;SDS011;63397;47.480;19.238;2023-06-10T10:42:59;12.75;;;9.40;;
74849;SDS011;63397;47.480;19.238;2023-06-10T10:46:02;14.03;;;9.40;;
74849;SDS011;63397;47.480;19.238;2023-06-10T10:49:08;12.38;;;8.65;;
74849;SDS011;63397;47.480;19.238;2023-06-10T10:52:11;11.68;;;8.63;;
74849;SDS011;63397;47.480;19.238;2023-06-10T10:55:13;12.07;;;8.38;;
74849;SDS011;63397;47.480;19.238;2023-06-10T10:58:16;11.63;;;7.63;;
74849;SDS011;63397;47.480;19.238;2023-06-10T11:01:18;9.30;;;6.90;;
74849;SDS011;63397;47.480;19.238;2023-06-10T11:04:20;10.18;;;7.43;;
74849;SDS011;63397;47.480;19.238;2023-06-10T11:07:24;8.15;;;6.40;;
74849;SDS011;63397;47.480;19.238;2023-06-10T11:10:30;9.20;;;6.85;;
74849;SDS011;63397;47.480;19.238;2023-06-10T11:13:33;9.10;;;6.18;;
74849;SDS011;63397;47.480;19.238;2023-06-10T11:16:40;8.60;;;5.87;;
74849;SDS011;63397;47.480;19.238;2023-06-10T11:19:43;7.60;;;5.60;;
74849;SDS011;63397;47.480;19.238;2023-06-10T11:22:58;5.40;;;3.88;;
74849;SDS011;63397;47.480;19.238;2023-06-10T11:29:14;4.72;;;3.35;;
74849;SDS011;63397;47.480;19.238;2023-06-10T11:32:17;4.90;;;3.40;;
74849;SDS011;63397;47.480;19.238;2023-06-10T11:35:20;5.70;;;3.58;;
74849;SDS011;63397;47.480;19.238;2023-06-10T11:38:25;4.10;;;3.03;;
74849;SDS011;63397;47.480;19.238;2023-06-10T11:41:28;4.80;;;3.17;;
74849;SDS011;63397;47.480;19.238;2023-06-10T11:44:31;4.63;;;3.08;;
74849;SDS011;63397;47.480;19.238;2023-06-10T11:47:35;5.10;;;2.73;;
74849;SDS011;63397;47.480;19.238;2023-06-10T11:50:37;4.25;;;3.10;;
74849;SDS011;63397;47.480;19.238;2023-06-10T11:53:40;3.97;;;2.70;;
74849;SDS011;63397;47.480;19.238;2023-06-10T11:56:42;5.00;;;2.90;;
74849;SDS011;63397;47.480;19.238;2023-06-10T11:59:44;3.90;;;2.80;;
74849;SDS011;63397;47.480;19.238;2023-06-10T12:02:49;4.33;;;2.70;;
74849;SDS011;63397;47.480;19.238;2023-06-10T12:05:57;4.10;;;2.83;;
74849;SDS011;63397;47.480;19.238;2023-06-10T12:09:00;5.90;;;3.53;;
74849;SDS011;63397;47.480;19.238;2023-06-10T12:12:22;4.93;;;3.60;;
74849;SDS011;63397;47.480;19.238;2023-06-10T12:15:24;4.22;;;3.17;;
74849;SDS011;63397;47.480;19.238;2023-06-10T12:18:27;5.10;;;3.60;;
74849;SDS011;63397;47.480;19.238;2023-06-10T12:21:31;4.35;;;3.38;;
74849;SDS011;63397;47.480;19.238;2023-06-10T12:24:33;5.50;;;4.00;;
74849;SDS011;63397;47.480;19.238;2023-06-10T12:27:51;4.82;;;3.40;;
74849;SDS011;63397;47.480;19.238;2023-06-10T12:31:07;5.22;;;4.15;;
74849;SDS011;63397;47.480;19.238;2023-06-10T12:34:10;5.33;;;4.17;;
74849;SDS011;63397;47.480;19.238;2023-06-10T12:37:12;5.57;;;3.95;;
74849;SDS011;63397;47.480;19.238;2023-06-10T12:40:17;4.50;;;3.30;;
74849;SDS011;63397;47.480;19.238;2023-06-10T12:43:20;3.80;;;2.90;;
74849;SDS011;63397;47.480;19.238;2023-06-10T12:46:23;5.18;;;3.40;;
74849;SDS011;63397;47.480;19.238;2023-06-10T12:49:26;4.37;;;3.53;;
74849;SDS011;63397;47.480;19.238;2023-06-10T12:52:29;6.38;;;3.45;;
74849;SDS011;63397;47.480;19.238;2023-06-10T12:55:31;5.45;;;3.58;;
74849;SDS011;63397;47.480;19.238;2023-06-10T12:58:34;4.75;;;3.03;;
74849;SDS011;63397;47.480;19.238;2023-06-10T13:01:37;4.20;;;3.10;;
74849;SDS011;63397;47.480;19.238;2023-06-10T13:04:39;4.97;;;3.00;;
74849;SDS011;63397;47.480;19.238;2023-06-10T13:07:42;4.78;;;2.67;;
74849;SDS011;63397;47.480;19.238;2023-06-10T13:10:44;4.10;;;2.97;;
74849;SDS011;63397;47.480;19.238;2023-06-10T13:13:46;4.32;;;3.05;;
74849;SDS011;63397;47.480;19.238;2023-06-10T13:16:49;5.50;;;2.97;;
74849;SDS011;63397;47.480;19.238;2023-06-10T13:19:51;5.00;;;3.27;;
74849;SDS011;63397;47.480;19.238;2023-06-10T13:22:54;5.78;;;3.65;;
74849;SDS011;63397;47.480;19.238;2023-06-10T13:25:56;5.93;;;3.42;;
74849;SDS011;63397;47.480;19.238;2023-06-10T13:28:58;5.55;;;3.67;;
74849;SDS011;63397;47.480;19.238;2023-06-10T13:32:01;5.82;;;3.80;;
74849;SDS011;63397;47.480;19.238;2023-06-10T13:35:03;5.43;;;3.40;;
74849;SDS011;63397;47.480;19.238;2023-06-10T13:38:06;5.07;;;3.50;;
74849;SDS011;63397;47.480;19.238;2023-06-10T13:41:09;5.30;;;3.03;;
74849;SDS011;63397;47.480;19.238;2023-06-10T13:44:12;5.32;;;3.13;;
74849;SDS011;63397;47.480;19.238;2023-06-10T13:47:14;5.85;;;3.40;;
74849;SDS011;63397;47.480;19.238;2023-06-10T13:50:17;4.97;;;3.43;;
74849;SDS011;63397;47.480;19.238;2023-06-10T13:53:19;6.15;;;3.60;;
74849;SDS011;63397;47.480;19.238;2023-06-10T13:56:21;6.25;;;3.97;;
74849;SDS011;63397;47.480;19.238;2023-06-10T13:59:24;6.55;;;4.15;;
74849;SDS011;63397;47.480;19.238;2023-06-10T14:02:26;5.70;;;3.72;;
74849;SDS011;63397;47.480;19.238;2023-06-10T14:05:28;7.13;;;4.17;;
74849;SDS011;63397;47.480;19.238;2023-06-10T14:08:33;6.53;;;4.40;;
74849;SDS011;63397;47.480;19.238;2023-06-10T14:11:35;7.22;;;5.22;;
74849;SDS011;63397;47.480;19.238;2023-06-10T14:14:37;7.00;;;5.10;;
74849;SDS011;63397;47.480;19.238;2023-06-10T14:17:40;8.55;;;5.88;;
74849;SDS011;63397;47.480;19.238;2023-06-10T14:20:42;9.03;;;5.67;;
74849;SDS011;63397;47.480;19.238;2023-06-10T14:23:44;9.77;;;6.00;;
74849;SDS011;63397;47.480;19.238;2023-06-10T14:26:47;8.10;;;5.90;;
74849;SDS011;63397;47.480;19.238;2023-06-10T14:29:49;7.32;;;5.68;;
74849;SDS011;63397;47.480;19.238;2023-06-10T14:32:52;7.80;;;5.75;;
74849;SDS011;63397;47.480;19.238;2023-06-10T14:35:54;7.40;;;5.60;;
74849;SDS011;63397;47.480;19.238;2023-06-10T14:38:56;6.43;;;5.20;;
74849;SDS011;63397;47.480;19.238;2023-06-10T14:41:59;7.75;;;5.55;;
74849;SDS011;63397;47.480;19.238;2023-06-10T14:45:01;9.35;;;5.72;;
74849;SDS011;63397;47.480;19.238;2023-06-10T14:48:05;8.45;;;6.00;;
74849;SDS011;63397;47.480;19.238;2023-06-10T14:51:07;8.77;;;5.83;;
74849;SDS011;63397;47.480;19.238;2023-06-10T14:54:10;6.47;;;5.00;;
74849;SDS011;63397;47.480;19.238;2023-06-10T14:57:12;7.68;;;5.28;;
74849;SDS011;63397;47.480;19.238;2023-06-10T15:00:14;7.57;;;5.80;;
74849;SDS011;63397;47.480;19.238;2023-06-10T15:03:18;7.60;;;5.53;;
74849;SDS011;63397;47.480;19.238;2023-06-10T15:06:21;7.67;;;5.07;;
74849;SDS011;63397;47.480;19.238;2023-06-10T15:09:25;7.00;;;4.15;;
74849;SDS011;63397;47.480;19.238;2023-06-10T15:12:27;6.43;;;4.68;;
74849;SDS011;63397;47.480;19.238;2023-06-10T15:15:30;8.00;;;4.10;;
74849;SDS011;63397;47.480;19.238;2023-06-10T15:18:32;6.10;;;4.13;;
74849;SDS011;63397;47.480;19.238;2023-06-10T15:21:35;5.57;;;3.90;;
74849;SDS011;63397;47.480;19.238;2023-06-10T15:24:38;6.28;;;4.15;;
74849;SDS011;63397;47.480;19.238;2023-06-10T15:27:40;6.38;;;4.28;;
74849;SDS011;63397;47.480;19.238;2023-06-10T15:30:43;7.43;;;5.00;;
74849;SDS011;63397;47.480;19.238;2023-06-10T15:33:45;6.55;;;4.30;;
74849;SDS011;63397;47.480;19.238;2023-06-10T15:36:48;7.63;;;4.80;;
74849;SDS011;63397;47.480;19.238;2023-06-10T15:39:51;7.30;;;4.95;;
74849;SDS011;63397;47.480;19.238;2023-06-10T15:42:53;8.25;;;4.88;;
74849;SDS011;63397;47.480;19.238;2023-06-10T15:45:55;6.72;;;4.20;;
74849;SDS011;63397;47.480;19.238;2023-06-10T15:48:58;7.72;;;3.80;;
74849;SDS011;63397;47.480;19.238;2023-06-10T15:52:01;7.33;;;4.07;;
74849;SDS011;63397;47.480;19.238;2023-06-10T15:55:03;5.28;;;3.50;;
74849;SDS011;63397;47.480;19.238;2023-06-10T15:58:05;5.78;;;3.67;;
74849;SDS011;63397;47.480;19.238;2023-06-10T16:01:08;7.43;;;3.58;;
74849;SDS011;63397;47.480;19.238;2023-06-10T16:04:11;5.70;;;3.20;;
74849;SDS011;63397;47.480;19.238;2023-06-10T16:07:13;6.13;;;3.20;;
74849;SDS011;63397;47.480;19.238;2023-06-10T16:10:16;6.10;;;3.40;;
74849;SDS011;63397;47.480;19.238;2023-06-10T16:13:18;5.28;;;3.35;;
74849;SDS011;63397;47.480;19.238;2023-06-10T16:16:20;5.50;;;3.20;;
74849;SDS011;63397;47.480;19.238;2023-06-10T16:19:23;8.00;;;3.60;;
74849;SDS011;63397;47.480;19.238;2023-06-10T16:22:26;5.73;;;3.47;;
74849;SDS011;63397;47.480;19.238;2023-06-10T16:25:28;5.65;;;3.65;;
74849;SDS011;63397;47.480;19.238;2023-06-10T16:28:31;6.25;;;3.88;;
74849;SDS011;63397;47.480;19.238;2023-06-10T16:31:33;6.28;;;4.10;;
74849;SDS011;63397;47.480;19.238;2023-06-10T16:34:36;5.47;;;3.85;;
74849;SDS011;63397;47.480;19.238;2023-06-10T16:37:38;6.33;;;3.60;;
74849;SDS011;63397;47.480;19.238;2023-06-10T16:40:40;5.93;;;3.60;;
74849;SDS011;63397;47.480;19.238;2023-06-10T16:43:43;5.53;;;3.40;;
74849;SDS011;63397;47.480;19.238;2023-06-10T16:46:45;5.78;;;3.60;;
74849;SDS011;63397;47.480;19.238;2023-06-10T16:49:47;6.95;;;3.75;;
74849;SDS011;63397;47.480;19.238;2023-06-10T16:52:52;5.60;;;3.60;;
74849;SDS011;63397;47.480;19.238;2023-06-10T16:55:54;5.50;;;3.50;;
74849;SDS011;63397;47.480;19.238;2023-06-10T16:58:56;6.45;;;3.47;;
74849;SDS011;63397;47.480;19.238;2023-06-10T17:01:59;7.80;;;3.22;;
74849;SDS011;63397;47.480;19.238;2023-06-10T17:05:04;6.30;;;3.30;;
74849;SDS011;63397;47.480;19.238;2023-06-10T17:08:07;6.20;;;3.33;;
74849;SDS011;63397;47.480;19.238;2023-06-10T17:11:10;5.97;;;3.38;;
74849;SDS011;63397;47.480;19.238;2023-06-10T17:14:12;6.32;;;3.63;;
74849;SDS011;63397;47.480;19.238;2023-06-10T17:17:14;6.03;;;3.47;;
74849;SDS011;63397;47.480;19.238;2023-06-10T17:20:17;6.70;;;3.30;;
74849;SDS011;63397;47.480;19.238;2023-06-10T17:23:19;6.00;;;3.40;;
74849;SDS011;63397;47.480;19.238;2023-06-10T17:26:21;5.78;;;3.40;;
74849;SDS011;63397;47.480;19.238;2023-06-10T17:29:24;6.45;;;3.40;;
74849;SDS011;63397;47.480;19.238;2023-06-10T17:32:26;6.07;;;3.60;;
74849;SDS011;63397;47.480;19.238;2023-06-10T17:35:28;6.95;;;3.50;;
74849;SDS011;63397;47.480;19.238;2023-06-10T17:38:31;5.93;;;3.27;;
74849;SDS011;63397;47.480;19.238;2023-06-10T17:41:33;7.43;;;3.97;;
74849;SDS011;63397;47.480;19.238;2023-06-10T17:44:35;10.63;;;5.95;;
74849;SDS011;63397;47.480;19.238;2023-06-10T17:47:38;10.90;;;6.30;;
74849;SDS011;63397;47.480;19.238;2023-06-10T17:50:40;7.78;;;4.43;;
74849;SDS011;63397;47.480;19.238;2023-06-10T17:53:43;9.23;;;4.70;;
74849;SDS011;63397;47.480;19.238;2023-06-10T17:56:45;7.32;;;4.40;;
74849;SDS011;63397;47.480;19.238;2023-06-10T17:59:48;7.57;;;4.05;;
74849;SDS011;63397;47.480;19.238;2023-06-10T18:02:50;5.45;;;3.35;;
74849;SDS011;63397;47.480;19.238;2023-06-10T18:05:53;6.90;;;3.72;;
74849;SDS011;63397;47.480;19.238;2023-06-10T18:08:56;8.17;;;4.00;;